createdAt,value
2017-02-14T00:01:31.327Z,964.38
2017-02-14T00:03:28.588Z,964.4
2017-02-14T00:05:25.864Z,964.41
2017-02-14T00:07:23.177Z,964.39
2017-02-14T00:09:20.419Z,964.43
2017-02-14T00:11:18.099Z,964.42
2017-02-14T00:13:25.739Z,964.38
2017-02-14T00:15:18.391Z,964.4
2017-02-14T00:17:25.706Z,964.43
2017-02-14T00:19:13.083Z,964.41
2017-02-14T00:20:55.709Z,964.45
2017-02-14T00:22:53.029Z,964.48
2017-02-14T00:24:45.381Z,964.49
2017-02-14T00:26:53.274Z,964.5
2017-02-14T00:29:00.831Z,964.48
2017-02-14T00:30:58.054Z,964.48
2017-02-14T00:32:50.590Z,964.53
2017-02-14T00:34:52.904Z,964.55
2017-02-14T00:36:40.263Z,964.57
2017-02-14T00:38:52.576Z,964.58
2017-02-14T00:40:49.856Z,964.63
2017-02-14T00:42:52.180Z,964.66
2017-02-14T00:44:39.536Z,964.67
2017-02-14T00:46:32.096Z,964.73
2017-02-14T00:48:34.470Z,964.68
2017-02-14T00:50:31.916Z,964.68
2017-02-14T00:52:19.341Z,964.72
2017-02-14T00:54:16.801Z,964.75
2017-02-14T00:56:09.048Z,964.73
2017-02-14T00:58:06.349Z,964.73
2017-02-14T01:00:03.614Z,964.71
2017-02-14T01:02:10.906Z,964.79
2017-02-14T01:04:13.289Z,964.82
2017-02-14T01:06:15.482Z,964.79
2017-02-14T01:08:08.013Z,964.83
2017-02-14T01:10:10.478Z,964.79
2017-02-14T01:12:22.799Z,964.8
2017-02-14T01:14:15.129Z,964.75
2017-02-14T01:16:12.533Z,964.82
2017-02-14T01:18:09.914Z,964.84
2017-02-14T01:20:12.800Z,964.88
2017-02-14T01:22:10.597Z,964.89
2017-02-14T01:24:17.990Z,964.87
2017-02-14T01:26:20.276Z,964.9
2017-02-14T01:28:17.596Z,964.92
2017-02-14T01:30:10.038Z,964.93
2017-02-14T01:32:02.370Z,964.99
2017-02-14T01:33:54.612Z,964.95
2017-02-14T01:35:56.974Z,964.93
2017-02-14T01:37:54.330Z,964.97
2017-02-14T01:39:51.723Z,965.02
2017-02-14T01:41:48.947Z,964.97
2017-02-14T01:43:31.356Z,964.99
2017-02-14T01:45:23.854Z,965.01
2017-02-14T01:47:11.110Z,965.01
2017-02-14T01:49:03.512Z,965.03
2017-02-14T01:51:00.816Z,965.06
2017-02-14T01:53:08.115Z,965.05
2017-02-14T01:55:11.160Z,965.06
2017-02-14T01:57:13.393Z,965.07
2017-02-14T01:59:05.737Z,965.08
2017-02-14T02:01:03.137Z,965.06
2017-02-14T02:02:50.571Z,965.05
2017-02-14T02:04:42.859Z,965.04
2017-02-14T02:06:35.206Z,965.06
2017-02-14T02:08:22.487Z,964.97
2017-02-14T02:10:19.816Z,964.95
2017-02-14T02:12:17.230Z,964.95
2017-02-14T02:13:59.700Z,964.96
2017-02-14T02:15:57.109Z,964.95
2017-02-14T02:18:04.360Z,965.03
2017-02-14T02:19:56.576Z,965.07
2017-02-14T02:21:43.906Z,965.09
2017-02-14T02:23:46.398Z,965.08
2017-02-14T02:25:33.736Z,965.12
2017-02-14T02:27:36.403Z,965.11
2017-02-14T02:29:39.165Z,965.15
2017-02-14T02:31:21.445Z,965.15
2017-02-14T02:33:13.856Z,965.23
2017-02-14T02:35:11.190Z,965.26
2017-02-14T02:37:13.600Z,965.23
2017-02-14T02:39:25.849Z,965.27
2017-02-14T02:41:23.125Z,965.28
2017-02-14T02:43:20.532Z,965.22
2017-02-14T02:45:32.911Z,965.23
2017-02-14T02:47:35.394Z,965.23
2017-02-14T02:49:27.723Z,965.21
2017-02-14T02:51:20.137Z,965.25
2017-02-14T02:53:22.405Z,965.25
2017-02-14T02:55:19.717Z,965.29
2017-02-14T02:57:12.107Z,965.3
2017-02-14T02:59:14.465Z,965.29
2017-02-14T03:01:16.990Z,965.31
2017-02-14T03:03:29.866Z,965.32
2017-02-14T03:05:27.296Z,965.32
2017-02-14T03:07:19.629Z,965.33
2017-02-14T03:09:21.883Z,965.38
2017-02-14T03:11:29.162Z,965.39
2017-02-14T03:13:31.558Z,965.4
2017-02-14T03:15:33.905Z,965.31
2017-02-14T03:17:41.261Z,965.3
2017-02-14T03:19:38.504Z,965.34
2017-02-14T03:21:30.851Z,965.34
2017-02-14T03:23:23.241Z,965.41
2017-02-14T03:25:25.607Z,965.45
2017-02-14T03:27:18.000Z,965.42
2017-02-14T03:29:10.460Z,965.33
2017-02-14T03:31:02.750Z,965.38
2017-02-14T03:33:04.961Z,965.35
2017-02-14T03:34:57.364Z,965.35
2017-02-14T03:37:00.323Z,965.33
2017-02-14T03:39:07.772Z,965.34
2017-02-14T03:41:10.121Z,965.4
2017-02-14T03:42:57.368Z,965.43
2017-02-14T03:44:49.704Z,965.39
2017-02-14T03:46:56.944Z,965.39
2017-02-14T03:48:59.211Z,965.39
2017-02-14T03:50:56.633Z,965.4
2017-02-14T03:52:53.851Z,965.38
2017-02-14T03:55:06.049Z,965.33
2017-02-14T03:57:03.395Z,965.37
2017-02-14T03:59:00.762Z,965.46
2017-02-14T04:00:58.336Z,965.51
2017-02-14T04:02:50.614Z,965.49
2017-02-14T04:04:42.928Z,965.52
2017-02-14T04:06:40.287Z,965.51
2017-02-14T04:08:37.753Z,965.54
2017-02-14T04:10:35.459Z,965.54
2017-02-14T04:12:48.131Z,965.6
2017-02-14T04:14:50.512Z,965.57
2017-02-14T04:16:42.788Z,965.58
2017-02-14T04:18:45.069Z,965.6
2017-02-14T04:20:37.434Z,965.54
2017-02-14T04:22:44.987Z,965.57
2017-02-14T04:24:42.413Z,965.57
2017-02-14T04:26:44.708Z,965.57
2017-02-14T04:28:32.053Z,965.56
2017-02-14T04:30:24.471Z,965.58
2017-02-14T04:32:16.998Z,965.53
2017-02-14T04:34:09.341Z,965.59
2017-02-14T04:36:11.697Z,965.65
2017-02-14T04:38:14.097Z,965.66
2017-02-14T04:40:01.445Z,965.69
2017-02-14T04:41:58.906Z,965.62
2017-02-14T04:43:51.606Z,965.62
2017-02-14T04:45:54.751Z,965.62
2017-02-14T04:47:57.289Z,965.64
2017-02-14T04:49:49.743Z,965.7
2017-02-14T04:51:47.040Z,965.73
2017-02-14T04:53:59.407Z,965.73
2017-02-14T04:55:51.949Z,965.72
2017-02-14T04:57:39.421Z,965.72
2017-02-14T04:59:26.801Z,965.72
2017-02-14T05:01:29.118Z,965.72
2017-02-14T05:03:26.448Z,965.75
2017-02-14T05:05:18.966Z,965.79
2017-02-14T05:07:11.442Z,965.8
2017-02-14T05:09:08.794Z,965.77
2017-02-14T05:11:16.231Z,965.77
2017-02-14T05:13:23.649Z,965.72
2017-02-14T05:15:25.987Z,965.75
2017-02-14T05:17:23.334Z,965.75
2017-02-14T05:19:31.137Z,965.81
2017-02-14T05:21:28.937Z,965.78
2017-02-14T05:23:31.219Z,965.79
2017-02-14T05:25:33.635Z,965.75
2017-02-14T05:27:26.009Z,965.75
2017-02-14T05:29:18.300Z,965.81
2017-02-14T05:31:20.641Z,965.91
2017-02-14T05:33:12.918Z,965.98
2017-02-14T05:35:10.117Z,966.09
2017-02-14T05:37:07.416Z,966.11
2017-02-14T05:39:09.682Z,966.11
2017-02-14T05:41:12.187Z,966.09
2017-02-14T05:43:09.451Z,966.1
2017-02-14T05:45:16.776Z,966.12
2017-02-14T05:47:24.066Z,966.14
2017-02-14T05:49:26.505Z,966.2
2017-02-14T05:51:18.910Z,966.2
2017-02-14T05:53:06.402Z,966.24
2017-02-14T05:55:19.307Z,966.26
2017-02-14T05:57:17.144Z,966.31
2017-02-14T05:59:14.565Z,966.33
2017-02-14T06:01:06.845Z,966.35
2017-02-14T06:03:09.417Z,966.41
2017-02-14T06:05:06.746Z,966.38
2017-02-14T06:07:09.107Z,966.4
2017-02-14T06:09:11.414Z,966.42
2017-02-14T06:11:03.881Z,966.47
2017-02-14T06:13:16.147Z,966.51
2017-02-14T06:15:13.538Z,966.51
2017-02-14T06:17:10.780Z,966.55
2017-02-14T06:19:08.194Z,966.51
2017-02-14T06:21:15.707Z,966.56
2017-02-14T06:23:13.115Z,966.59
2017-02-14T06:24:55.539Z,966.58
2017-02-14T06:26:57.887Z,966.54
2017-02-14T06:29:00.582Z,966.57
2017-02-14T06:30:48.249Z,966.59
2017-02-14T06:32:55.906Z,966.63
2017-02-14T06:34:53.211Z,966.62
2017-02-14T06:36:55.571Z,966.59
2017-02-14T06:38:52.917Z,966.53
2017-02-14T06:40:50.428Z,966.6
2017-02-14T06:42:57.794Z,966.67
2017-02-14T06:45:00.189Z,966.73
2017-02-14T06:46:57.408Z,966.74
2017-02-14T06:48:49.776Z,966.71
2017-02-14T06:50:47.036Z,966.74
2017-02-14T06:52:49.406Z,966.73
2017-02-14T06:54:56.790Z,966.82
2017-02-14T06:57:04.066Z,966.89
2017-02-14T06:59:06.332Z,966.91
2017-02-14T07:01:03.716Z,966.94
2017-02-14T07:02:55.963Z,967.01
2017-02-14T07:05:03.512Z,967.08
2017-02-14T07:07:05.929Z,967.14
2017-02-14T07:08:58.222Z,967.11
2017-02-14T07:11:00.552Z,967.11
2017-02-14T07:12:57.986Z,967.13
2017-02-14T07:14:45.315Z,967.16
2017-02-14T07:16:42.790Z,967.19
2017-02-14T07:18:35.119Z,967.31
2017-02-14T07:20:47.353Z,967.28
2017-02-14T07:22:49.645Z,967.29
2017-02-14T07:24:57.081Z,967.32
2017-02-14T07:27:04.456Z,967.33
2017-02-14T07:28:56.842Z,967.41
2017-02-14T07:30:49.199Z,967.33
2017-02-14T07:32:41.692Z,967.3
2017-02-14T07:34:34.233Z,967.28
2017-02-14T07:36:36.599Z,967.3
2017-02-14T07:38:28.995Z,967.33
2017-02-14T07:40:21.333Z,967.35
2017-02-14T07:42:23.847Z,967.42
2017-02-14T07:44:21.626Z,967.39
2017-02-14T07:46:18.942Z,967.42
2017-02-14T07:48:11.303Z,967.41
2017-02-14T07:50:08.739Z,967.36
2017-02-14T07:52:06.318Z,967.45
2017-02-14T07:54:13.598Z,967.55
2017-02-14T07:56:05.870Z,967.51
2017-02-14T07:57:58.208Z,967.48
2017-02-14T08:00:00.523Z,967.45
2017-02-14T08:01:52.907Z,967.45
2017-02-14T08:03:55.151Z,967.44
2017-02-14T08:05:57.435Z,967.45
2017-02-14T08:07:59.661Z,967.45
2017-02-14T08:09:51.982Z,967.42
2017-02-14T08:11:44.358Z,967.42
2017-02-14T08:13:46.731Z,967.41
2017-02-14T08:15:43.984Z,967.43
2017-02-14T08:17:51.274Z,967.49
2017-02-14T08:19:49.015Z,967.52
2017-02-14T08:21:46.237Z,967.51
2017-02-14T08:23:38.516Z,967.5
2017-02-14T08:25:40.862Z,967.58
2017-02-14T08:27:43.057Z,967.57
2017-02-14T08:29:35.349Z,967.57
2017-02-14T08:31:27.661Z,967.65
2017-02-14T08:33:25.086Z,967.64
2017-02-14T08:35:27.526Z,967.61
2017-02-14T08:37:19.884Z,967.66
2017-02-14T08:39:27.162Z,967.63
2017-02-14T08:41:29.466Z,967.66
2017-02-14T08:43:26.890Z,967.64
2017-02-14T08:45:29.210Z,967.67
2017-02-14T08:47:21.614Z,967.66
2017-02-14T08:49:18.952Z,967.71
2017-02-14T08:51:26.221Z,967.73
2017-02-14T08:53:23.464Z,967.74
2017-02-14T08:55:25.630Z,967.76
2017-02-14T08:57:33.027Z,967.8
2017-02-14T08:59:30.286Z,967.75
2017-02-14T09:01:27.489Z,967.78
2017-02-14T09:03:24.992Z,967.78
2017-02-14T09:05:22.312Z,967.81
2017-02-14T09:07:19.636Z,967.78
2017-02-14T09:09:11.905Z,967.76
2017-02-14T09:11:14.359Z,967.89
2017-02-14T09:13:06.592Z,967.87
2017-02-14T09:15:13.990Z,967.91
2017-02-14T09:17:01.267Z,967.94
2017-02-14T09:18:58.518Z,967.9
2017-02-14T09:20:56.054Z,967.92
2017-02-14T09:23:03.469Z,967.91
2017-02-14T09:25:05.834Z,967.86
2017-02-14T09:27:03.110Z,967.86
2017-02-14T09:29:00.460Z,967.86
2017-02-14T09:31:12.779Z,967.88
2017-02-14T09:33:05.324Z,967.85
2017-02-14T09:34:57.595Z,967.91
2017-02-14T09:36:45.147Z,967.89
2017-02-14T09:38:57.334Z,967.87
2017-02-14T09:40:44.599Z,967.91
2017-02-14T09:42:41.878Z,967.88
2017-02-14T09:44:35.295Z,967.88
2017-02-14T09:46:27.726Z,967.92
2017-02-14T09:48:29.937Z,967.94
2017-02-14T09:50:32.511Z,967.95
2017-02-14T09:52:20.074Z,967.93
2017-02-14T09:54:22.313Z,967.85
2017-02-14T09:56:24.714Z,967.79
2017-02-14T09:58:22.126Z,967.78
2017-02-14T10:00:19.349Z,967.8
2017-02-14T10:02:06.724Z,967.84
2017-02-14T10:04:09.266Z,967.84
2017-02-14T10:06:06.524Z,967.87
2017-02-14T10:07:59.132Z,967.85
2017-02-14T10:09:51.471Z,967.8
2017-02-14T10:11:43.757Z,967.73
2017-02-14T10:13:41.130Z,967.75
2017-02-14T10:15:28.556Z,967.74
2017-02-14T10:17:25.879Z,967.78
2017-02-14T10:19:23.320Z,967.77
2017-02-14T10:21:05.616Z,967.77
2017-02-14T10:23:07.896Z,967.8
2017-02-14T10:25:00.344Z,967.82
2017-02-14T10:26:57.680Z,967.87
2017-02-14T10:28:45.119Z,967.81
2017-02-14T10:30:48.262Z,967.76
2017-02-14T10:32:50.534Z,967.76
2017-02-14T10:34:43.004Z,967.76
2017-02-14T10:36:45.300Z,967.6
2017-02-14T10:38:42.693Z,967.56
2017-02-14T10:40:45.017Z,967.54
2017-02-14T10:42:47.504Z,967.47
2017-02-14T10:44:34.820Z,967.51
2017-02-14T10:46:32.184Z,967.54
2017-02-14T10:48:29.446Z,967.55
2017-02-14T10:50:31.655Z,967.55
2017-02-14T10:52:23.942Z,967.53
2017-02-14T10:54:21.827Z,967.51
2017-02-14T10:56:14.242Z,967.51
2017-02-14T10:58:01.596Z,967.56
2017-02-14T10:59:58.980Z,967.5
2017-02-14T11:02:06.425Z,967.54
2017-02-14T11:04:09.038Z,967.51
2017-02-14T11:06:11.538Z,967.45
2017-02-14T11:08:03.922Z,967.46
2017-02-14T11:09:56.416Z,967.45
2017-02-14T11:11:53.776Z,967.42
2017-02-14T11:14:01.160Z,967.46
2017-02-14T11:15:58.440Z,967.39
2017-02-14T11:17:55.824Z,967.35
2017-02-14T11:19:53.282Z,967.35
2017-02-14T11:21:55.915Z,967.33
2017-02-14T11:24:03.261Z,967.31
2017-02-14T11:26:00.543Z,967.32
2017-02-14T11:27:57.798Z,967.34
2017-02-14T11:30:04.995Z,967.32
2017-02-14T11:31:57.242Z,967.3
2017-02-14T11:33:54.599Z,967.23
2017-02-14T11:35:56.914Z,967.19
2017-02-14T11:38:04.274Z,967.13
2017-02-14T11:40:06.651Z,967.06
2017-02-14T11:42:09.006Z,967.07
2017-02-14T11:44:16.202Z,967.01
2017-02-14T11:46:18.510Z,967.01
2017-02-14T11:48:10.844Z,966.98
2017-02-14T11:50:17.504Z,967.06
2017-02-14T11:52:14.884Z,967.08
2017-02-14T11:54:17.167Z,967.12
2017-02-14T11:56:15.949Z,967.12
2017-02-14T11:58:25.054Z,967.12
2017-02-14T12:00:19.007Z,967.06
2017-02-14T12:02:16.358Z,967.03
2017-02-14T12:04:18.584Z,966.96
2017-02-14T12:06:06.114Z,966.97
2017-02-14T12:08:08.294Z,967.03
2017-02-14T12:10:10.497Z,967.07
2017-02-14T12:12:17.742Z,967.1
2017-02-14T12:14:00.142Z,967.05
2017-02-14T12:15:57.333Z,967.04
2017-02-14T12:17:54.545Z,967.03
2017-02-14T12:19:41.864Z,967.02
2017-02-14T12:21:29.147Z,966.99
2017-02-14T12:23:21.459Z,967.03
2017-02-14T12:25:23.797Z,967.03
2017-02-14T12:27:31.023Z,967
2017-02-14T12:29:28.211Z,967.08
2017-02-14T12:31:25.722Z,967.04
2017-02-14T12:33:28.121Z,967.07
2017-02-14T12:35:20.598Z,966.98
2017-02-14T12:37:27.883Z,967.04
2017-02-14T12:39:30.117Z,966.97
2017-02-14T12:41:28.449Z,967.02
2017-02-14T12:43:35.811Z,966.94
2017-02-14T12:45:33.204Z,966.95
2017-02-14T12:47:31.055Z,966.99
2017-02-14T12:49:23.430Z,967.02
2017-02-14T12:51:15.898Z,967.03
2017-02-14T12:53:23.225Z,967.05
2017-02-14T12:55:21.950Z,967.07
2017-02-14T12:57:19.168Z,966.98
2017-02-14T12:59:12.425Z,967.04
2017-02-14T13:00:59.738Z,967.07
2017-02-14T13:02:57.099Z,967.07
2017-02-14T13:04:54.328Z,966.98
2017-02-14T13:06:56.600Z,966.98
2017-02-14T13:08:48.907Z,967
2017-02-14T13:10:51.234Z,967.03
2017-02-14T13:12:50.148Z,966.97
2017-02-14T13:14:48.312Z,967.04
2017-02-14T13:16:45.765Z,967.06
2017-02-14T13:18:38.337Z,967.11
2017-02-14T13:20:35.651Z,967.06
2017-02-14T13:22:38.594Z,967.11
2017-02-14T13:24:31.110Z,967.1
2017-02-14T13:26:33.494Z,967.06
2017-02-14T13:28:31.576Z,967.12
2017-02-14T13:30:29.178Z,967.12
2017-02-14T13:32:31.797Z,967.2
2017-02-14T13:34:24.128Z,967.18
2017-02-14T13:36:16.556Z,967.14
2017-02-14T13:38:23.932Z,967.21
2017-02-14T13:40:16.218Z,967.17
2017-02-14T13:42:13.673Z,967.18
2017-02-14T13:44:20.903Z,967.13
2017-02-14T13:46:18.482Z,967.11
2017-02-14T13:48:15.919Z,967.09
2017-02-14T13:50:23.460Z,967.13
2017-02-14T13:52:25.842Z,967.18
2017-02-14T13:54:13.192Z,967.16
2017-02-14T13:56:10.494Z,967.17
2017-02-14T13:58:12.920Z,967.23
2017-02-14T14:00:25.376Z,967.25
2017-02-14T14:02:12.687Z,967.33
2017-02-14T14:04:15.126Z,967.42
2017-02-14T14:06:07.523Z,967.49
2017-02-14T14:07:59.775Z,967.51
2017-02-14T14:09:42.217Z,967.55
2017-02-14T14:11:39.651Z,967.63
2017-02-14T14:13:27.128Z,967.6
2017-02-14T14:15:24.438Z,967.56
2017-02-14T14:17:11.768Z,967.55
2017-02-14T14:19:09.033Z,967.53
2017-02-14T14:21:11.534Z,967.52
2017-02-14T14:23:03.883Z,967.54
2017-02-14T14:25:11.136Z,967.51
2017-02-14T14:26:58.789Z,967.55
2017-02-14T14:28:56.363Z,967.54
2017-02-14T14:30:53.858Z,967.53
2017-02-14T14:33:01.067Z,967.5
2017-02-14T14:35:03.664Z,967.57
2017-02-14T14:37:01.102Z,967.59
2017-02-14T14:38:53.398Z,967.62
2017-02-14T14:40:40.819Z,967.65
2017-02-14T14:42:38.174Z,967.71
2017-02-14T14:44:40.556Z,967.71
2017-02-14T14:46:37.866Z,967.69
2017-02-14T14:48:35.378Z,967.75
2017-02-14T14:50:27.733Z,967.7
2017-02-14T14:52:20.091Z,967.75
2017-02-14T14:54:17.433Z,967.75
2017-02-14T14:56:14.816Z,967.74
2017-02-14T14:58:07.295Z,967.79
2017-02-14T15:00:14.599Z,967.78
2017-02-14T15:02:17.035Z,967.82
2017-02-14T15:04:09.419Z,967.76
2017-02-14T15:06:01.698Z,967.81
2017-02-14T15:08:09.205Z,967.88
2017-02-14T15:10:06.729Z,967.89
2017-02-14T15:12:14.340Z,967.87
2017-02-14T15:14:11.763Z,967.91
2017-02-14T15:16:04.490Z,967.92
2017-02-14T15:18:01.874Z,968.02
2017-02-14T15:19:39.260Z,968.09
2017-02-14T15:21:41.578Z,968.17
2017-02-14T15:23:48.851Z,968.13
2017-02-14T15:25:41.257Z,968.13
2017-02-14T15:27:43.672Z,968.17
2017-02-14T15:29:51.086Z,968.18
2017-02-14T15:31:49.553Z,968.2
2017-02-14T15:33:46.942Z,968.2
2017-02-14T15:35:24.660Z,968.25
2017-02-14T15:37:22.216Z,968.27
2017-02-14T15:39:14.592Z,968.32
2017-02-14T15:41:06.989Z,968.3
2017-02-14T15:43:09.600Z,968.31
2017-02-14T15:44:57.199Z,968.36
2017-02-14T15:47:04.827Z,968.39
2017-02-14T15:49:02.409Z,968.42
2017-02-14T15:50:59.797Z,968.41
2017-02-14T15:52:57.265Z,968.41
2017-02-14T15:54:54.691Z,968.41
2017-02-14T15:56:52.096Z,968.4
2017-02-14T15:58:39.444Z,968.39
2017-02-14T16:00:31.938Z,968.4
2017-02-14T16:02:24.253Z,968.47
2017-02-14T16:04:11.703Z,968.49
2017-02-14T16:06:09.230Z,968.47
2017-02-14T16:08:06.691Z,968.47
2017-02-14T16:10:09.173Z,968.54
2017-02-14T16:12:01.630Z,968.52
2017-02-14T16:14:03.951Z,968.57
2017-02-14T16:16:01.521Z,968.57
2017-02-14T16:18:03.979Z,968.6
2017-02-14T16:20:01.609Z,968.65
2017-02-14T16:22:04.368Z,968.68
2017-02-14T16:24:06.953Z,968.77
2017-02-14T16:26:09.525Z,968.78
2017-02-14T16:28:16.947Z,968.78
2017-02-14T16:30:19.436Z,968.81
2017-02-14T16:32:22.413Z,968.88
2017-02-14T16:34:20.050Z,968.93
2017-02-14T16:36:12.610Z,968.93
2017-02-14T16:38:10.363Z,968.97
2017-02-14T16:40:18.121Z,969.02
2017-02-14T16:42:20.807Z,968.98
2017-02-14T16:44:23.131Z,969.03
2017-02-14T16:46:20.954Z,969.11
2017-02-14T16:48:23.334Z,969.19
2017-02-14T16:50:25.824Z,969.27
2017-02-14T16:52:23.208Z,969.23
2017-02-14T16:54:25.934Z,969.23
2017-02-14T16:56:23.529Z,969.26
2017-02-14T16:58:23.035Z,969.25
2017-02-14T17:00:36.484Z,969.28
2017-02-14T17:02:47.466Z,969.29
2017-02-14T17:04:40.067Z,969.36
2017-02-14T17:06:47.327Z,969.41
2017-02-14T17:08:29.770Z,969.41
2017-02-14T17:10:32.159Z,969.44
2017-02-14T17:12:19.735Z,969.49
2017-02-14T17:14:13.074Z,969.52
2017-02-14T17:16:15.349Z,969.55
2017-02-14T17:18:02.912Z,969.57
2017-02-14T17:20:00.669Z,969.59
2017-02-14T17:22:03.173Z,969.61
2017-02-14T17:24:16.024Z,969.71
2017-02-14T17:26:08.509Z,969.69
2017-02-14T17:28:05.953Z,969.68
2017-02-14T17:30:03.474Z,969.67
2017-02-14T17:32:07.378Z,969.69
2017-02-14T17:34:04.850Z,969.72
2017-02-14T17:36:02.146Z,969.73
2017-02-14T17:37:59.784Z,969.74
2017-02-14T17:40:02.194Z,969.77
2017-02-14T17:41:59.740Z,969.82
2017-02-14T17:44:02.128Z,969.87
2017-02-14T17:46:04.682Z,969.85
2017-02-14T17:48:02.375Z,969.81
2017-02-14T17:49:59.879Z,969.85
2017-02-14T17:51:52.457Z,969.83
2017-02-14T17:53:59.713Z,969.84
2017-02-14T17:56:07.150Z,969.89
2017-02-14T17:58:04.522Z,969.9
2017-02-14T17:59:56.942Z,969.91
2017-02-14T18:01:54.892Z,969.94
2017-02-14T18:03:57.781Z,969.95
2017-02-14T18:06:00.185Z,969.91
2017-02-14T18:08:02.482Z,969.93
2017-02-14T18:09:59.953Z,969.88
2017-02-14T18:12:02.577Z,969.87
2017-02-14T18:14:04.995Z,969.84
2017-02-14T18:16:12.803Z,969.83
2017-02-14T18:18:15.381Z,969.86
2017-02-14T18:20:27.806Z,969.83
2017-02-14T18:22:30.339Z,969.83
2017-02-14T18:24:22.898Z,969.81
2017-02-14T18:26:25.172Z,969.86
2017-02-14T18:28:22.936Z,969.87
2017-02-14T18:30:25.895Z,969.88
2017-02-14T18:32:33.949Z,969.85
2017-02-14T18:34:41.946Z,969.85
2017-02-14T18:36:40.313Z,969.88
2017-02-14T18:38:43.735Z,969.94
2017-02-14T18:40:36.881Z,969.94
2017-02-14T18:42:34.343Z,969.95
2017-02-14T18:44:41.979Z,969.96
2017-02-14T18:46:49.428Z,969.97
2017-02-14T18:48:59.256Z,970
2017-02-14T18:51:14.476Z,970.01
2017-02-14T18:53:45.299Z,970.01
2017-02-14T18:56:17.408Z,970.05
2017-02-14T18:58:56.336Z,970.06
2017-02-14T19:01:52.445Z,970.02
2017-02-14T19:04:52.079Z,970.01
2017-02-14T19:07:54.764Z,970.04
2017-02-14T19:10:53.187Z,970.05
2017-02-14T19:13:53.114Z,970.05
2017-02-14T19:16:13.278Z,970.08
2017-02-14T19:18:24.400Z,970.08
2017-02-14T19:20:27.717Z,970.05
2017-02-14T19:22:55.022Z,970.09
2017-02-14T19:25:22.204Z,970.09
2017-02-14T19:27:53.211Z,970.07
2017-02-14T19:30:37.646Z,970.03
2017-02-14T19:33:30.393Z,970.09
2017-02-14T19:36:21.494Z,970.06
2017-02-14T19:39:18.977Z,970.05
2017-02-14T19:42:12.419Z,970.09
2017-02-14T19:45:03.704Z,970.09
2017-02-14T19:47:58.512Z,970.12
2017-02-14T19:50:54.554Z,970.14
2017-02-14T19:53:51.333Z,970.22
2017-02-14T19:56:43.084Z,970.23
2017-02-14T19:59:45.118Z,970.32
2017-02-14T20:02:46.175Z,970.26
2017-02-14T20:05:49.427Z,970.28
2017-02-14T20:08:56.842Z,970.26
2017-02-14T20:12:11.797Z,970.28
2017-02-14T20:15:15.230Z,970.29
2017-02-14T20:18:11.936Z,970.24
2017-02-14T20:21:14.355Z,970.23
2017-02-14T20:24:13.545Z,970.26
2017-02-14T20:27:16.810Z,970.29
2017-02-14T20:30:19.953Z,970.25
2017-02-14T20:33:23.106Z,970.27
2017-02-14T20:36:25.546Z,970.3
2017-02-14T20:39:29.389Z,970.35
2017-02-14T20:42:26.068Z,970.37
2017-02-14T20:45:25.866Z,970.42
2017-02-14T20:48:26.590Z,970.42
2017-02-14T20:51:17.230Z,970.47
2017-02-14T20:54:09.081Z,970.43
2017-02-14T20:57:09.821Z,970.46
2017-02-14T20:59:52.988Z,970.48
2017-02-14T21:02:15.274Z,970.48
2017-02-14T21:04:26.920Z,970.43
2017-02-14T21:06:39.261Z,970.52
2017-02-14T21:08:49.341Z,970.56
2017-02-14T21:11:03.011Z,970.56
2017-02-14T21:13:14.579Z,970.55
2017-02-14T21:15:27.319Z,970.57
2017-02-14T21:17:38.271Z,970.6
2017-02-14T21:19:39.946Z,970.58
2017-02-14T21:21:51.014Z,970.54
2017-02-14T21:23:58.422Z,970.56
2017-02-14T21:26:06.165Z,970.6
2017-02-14T21:28:18.507Z,970.59
2017-02-14T21:30:28.970Z,970.59
2017-02-14T21:32:41.198Z,970.57
2017-02-14T21:34:53.927Z,970.61
2017-02-14T21:36:55.227Z,970.63
2017-02-14T21:38:53.160Z,970.58
2017-02-14T21:40:45.755Z,970.56
2017-02-14T21:42:48.292Z,970.59
2017-02-14T21:44:55.516Z,970.62
2017-02-14T21:47:07.820Z,970.63
2017-02-14T21:49:20.267Z,970.67
2017-02-14T21:51:22.678Z,970.71
2017-02-14T21:53:30.187Z,970.72
2017-02-14T21:55:42.730Z,970.7
2017-02-14T21:57:45.170Z,970.75
2017-02-14T21:59:47.518Z,970.73
2017-02-14T22:01:59.888Z,970.74
2017-02-14T22:03:52.473Z,970.72
2017-02-14T22:05:49.805Z,970.75
2017-02-14T22:07:47.129Z,970.75
2017-02-14T22:09:39.762Z,970.73
2017-02-14T22:11:32.325Z,970.73
2017-02-14T22:13:35.084Z,970.72
2017-02-14T22:15:34.462Z,970.74
2017-02-14T22:17:32.019Z,970.78
2017-02-14T22:19:30.671Z,970.72
2017-02-14T22:21:29.111Z,970.75
2017-02-14T22:23:16.494Z,970.76
2017-02-14T22:25:13.730Z,970.76
2017-02-14T22:27:06.623Z,970.84
2017-02-14T22:29:04.005Z,970.9
2017-02-14T22:31:06.489Z,970.9
2017-02-14T22:33:20.350Z,970.96
2017-02-14T22:35:29.123Z,970.95
2017-02-14T22:37:36.963Z,970.95
2017-02-14T22:40:11.789Z,970.98
2017-02-14T22:43:13.403Z,970.99
2017-02-14T22:46:10.481Z,971.01
2017-02-14T22:49:07.493Z,970.95
2017-02-14T22:51:54.785Z,970.99
2017-02-14T22:54:55.197Z,971
2017-02-14T22:57:39.488Z,971.02
2017-02-14T22:59:51.053Z,971.05
2017-02-14T23:02:00.338Z,971.08
2017-02-14T23:04:16.735Z,971.07
2017-02-14T23:06:35.797Z,971.09
2017-02-14T23:09:04.060Z,971.12
2017-02-14T23:11:30.721Z,971.09
2017-02-14T23:13:51.771Z,971.13
2017-02-14T23:16:31.881Z,971.12
2017-02-14T23:19:19.598Z,971.13
2017-02-14T23:22:11.415Z,971.13
2017-02-14T23:25:01.905Z,971.15
2017-02-14T23:27:53.887Z,971.11
2017-02-14T23:30:46.743Z,971.07
2017-02-14T23:33:17.700Z,971.11
2017-02-14T23:35:29.047Z,971.16
2017-02-14T23:37:45.142Z,971.15
2017-02-14T23:40:11.304Z,971.14
2017-02-14T23:42:36.395Z,971.15
2017-02-14T23:44:56.810Z,971.12
2017-02-14T23:47:16.711Z,971.14
2017-02-14T23:49:36.417Z,971.2
2017-02-14T23:51:57.292Z,971.18
2017-02-14T23:54:26.903Z,971.19
2017-02-14T23:56:45.109Z,971.23
2017-02-14T23:59:02.980Z,971.26
